Terminal Aerodrome Forecast
Issued by NWS

Home | Current Version | Previous Version | Text Only | Print | Product List | Glossary On
Versions: 1 2 3 4 5 6 7 8 9 10 11 12 13 14
000
FTUS43 KDVN 240500
TAFCID
TAF
KCID 240520Z 2406/2506 14005KT P6SM BKN150
     FM241500 16009KT P6SM BKN120
     FM250000 12003KT P6SM BKN060=

USA.gov is the U.S. government's official web portal to all federal, state and local government web resources and services.